Time;durP1;ratioP1;P1;durP2;ratioP2;P2;SDS_P1;SDS_P2;PMS_P1;PMS_P2;Temp;Humidity;BMP_temperature;BMP_pressure;BME280_temperature;BME280_humidity;BME280_pressure;Samples;Min_cycle;Max_cycle;Signal;HPM_P1;HPM_P2
2021/10/18 00:00:11;;;;;;;25.88;14.93;;;;;;;-149.78;100.00;50354.09;5070465;28;20044;-73
2021/10/18 00:02:36;;;;;;;26.77;15.02;;;;;;;-149.78;100.00;50338.44;5072786;28;20028;-73
2021/10/18 00:05:04;;;;;;;24.15;13.68;;;;;;;-149.78;100.00;50342.38;5068435;28;20032;-70
2021/10/18 00:07:29;;;;;;;26.48;14.15;;;;;;;-149.78;100.00;50381.47;5052458;28;20029;-70
2021/10/18 00:09:55;;;;;;;24.92;14.52;;;;;;;-149.78;100.00;50350.19;5065937;28;20510;-73
2021/10/18 00:12:20;;;;;;;24.15;13.90;;;;;;;-149.78;100.00;50367.78;5053852;28;20021;-73
2021/10/18 00:14:47;;;;;;;25.73;13.65;;;;;;;-149.78;100.00;50342.38;5049407;28;20036;-73
2021/10/18 00:17:12;;;;;;;25.95;14.07;;;;;;;-149.78;100.00;50342.38;5058834;28;20040;-73
2021/10/18 00:19:38;;;;;;;21.60;13.48;;;;;;;-149.78;100.00;50342.38;5069784;28;20037;-73
2021/10/18 00:22:04;;;;;;;28.15;14.10;;;;;;;-149.78;100.00;50342.38;5056549;28;20048;-73
2021/10/18 00:24:30;;;;;;;24.67;13.15;;;;;;;-149.78;100.00;50377.56;5056152;28;20406;-73
2021/10/18 00:26:55;;;;;;;21.85;13.15;;;;;;;-149.78;100.00;50354.09;5051287;28;20075;-73
2021/10/18 00:29:21;;;;;;;29.52;14.38;;;;;;;-149.78;100.00;50352.16;5058926;28;20426;-73
2021/10/18 00:31:47;;;;;;;26.38;14.05;;;;;;;-149.78;100.00;50354.09;5057595;28;20416;-73
2021/10/18 00:34:12;;;;;;;23.13;13.98;;;;;;;-149.78;100.00;50389.31;5076082;28;20144;-73
2021/10/18 00:36:38;;;;;;;24.55;14.18;;;;;;;-149.78;100.00;50358.00;5058598;28;20040;-74
2021/10/18 00:39:04;;;;;;;23.30;13.85;;;;;;;-149.78;100.00;50354.09;5058027;28;20041;-73
2021/10/18 00:41:31;;;;;;;23.05;13.77;;;;;;;-149.78;100.00;50361.91;5063010;28;20028;-73
2021/10/18 00:43:56;;;;;;;31.17;15.05;;;;;;;-149.78;100.00;50350.19;5053448;28;20120;-73
2021/10/18 00:46:24;;;;;;;26.95;14.00;;;;;;;-149.78;100.00;50350.19;5056317;28;20031;-73
2021/10/18 00:48:51;;;;;;;28.48;15.57;;;;;;;-149.78;100.00;50387.34;5061387;28;20516;-73
2021/10/18 00:51:20;;;;;;;26.58;14.75;;;;;;;-149.78;100.00;50354.09;5069326;28;20225;-73
2021/10/18 00:53:45;;;;;;;28.02;15.85;;;;;;;-149.78;100.00;50358.00;5061956;28;20029;-73
2021/10/18 00:56:13;;;;;;;26.73;15.77;;;;;;;-149.78;100.00;50354.09;5064482;28;20054;-73
2021/10/18 00:58:40;;;;;;;26.45;15.90;;;;;;;-149.78;100.00;50369.75;5058823;28;20462;-73
2021/10/18 01:01:06;;;;;;;30.75;15.65;;;;;;;-149.78;100.00;50361.91;5069048;28;20393;-74
2021/10/18 01:03:32;;;;;;;30.75;16.67;;;;;;;-149.78;100.00;50385.38;5066118;28;20641;-73
2021/10/18 01:05:57;;;;;;;32.72;16.50;;;;;;;-149.78;100.00;50381.47;5057333;28;20120;-73
2021/10/18 01:08:23;;;;;;;32.40;17.55;;;;;;;-149.78;100.00;50397.13;5060187;28;20043;-73
2021/10/18 01:10:49;;;;;;;31.98;17.55;;;;;;;-149.78;100.00;50373.66;5055342;28;20029;-74
2021/10/18 01:13:15;;;;;;;33.05;17.08;;;;;;;-149.78;100.00;50348.22;5064594;28;20498;-74
2021/10/18 01:15:40;;;;;;;35.33;18.75;;;;;;;-149.78;100.00;50338.44;5056785;28;20430;-74
2021/10/18 01:18:06;;;;;;;31.20;17.88;;;;;;;-149.78;100.00;50381.47;5053547;28;20477;-74
2021/10/18 01:20:39;;;;;;;36.75;20.52;;;;;;;-149.78;100.00;50350.19;5069157;28;20032;-74
2021/10/18 01:23:06;;;;;;;33.42;17.83;;;;;;;-149.78;100.00;50375.63;5064257;28;20461;-74
2021/10/18 01:25:32;;;;;;;41.28;20.27;;;;;;;-149.78;100.00;50404.94;5051352;28;20020;-74
2021/10/18 01:27:58;;;;;;;35.75;20.23;;;;;;;-149.78;100.00;50350.19;5063216;28;21853;-73
2021/10/18 01:30:25;;;;;;;38.90;19.73;;;;;;;-149.78;100.00;50377.56;5051617;28;20033;-73
2021/10/18 01:32:51;;;;;;;37.88;21.60;;;;;;;-149.78;100.00;50404.94;5061329;28;20075;-73
2021/10/18 01:35:16;;;;;;;40.58;21.42;;;;;;;-149.78;100.00;50393.22;5067574;28;20036;-73
2021/10/18 01:37:42;;;;;;;40.50;21.33;;;;;;;-149.78;100.00;50403.00;5062780;28;20460;-73
2021/10/18 01:40:10;;;;;;;45.50;22.75;;;;;;;-149.78;100.00;50416.69;5062334;28;20068;-73
2021/10/18 01:42:36;;;;;;;39.35;21.60;;;;;;;-149.78;100.00;50379.53;5060637;28;20381;-73
2021/10/18 01:45:03;;;;;;;42.50;22.80;;;;;;;-149.78;100.00;50371.69;5056675;28;20111;-73
2021/10/18 01:47:29;;;;;;;42.95;21.95;;;;;;;-149.78;100.00;50401.03;5051752;28;20029;-73
2021/10/18 01:49:56;;;;;;;44.58;23.45;;;;;;;-149.78;100.00;50404.94;5064571;28;20495;-73
2021/10/18 01:52:23;;;;;;;45.25;22.20;;;;;;;-149.78;100.00;50391.25;5072751;28;20029;-73
2021/10/18 01:54:49;;;;;;;45.63;22.73;;;;;;;-149.78;100.00;50373.66;5060951;28;20108;-73
2021/10/18 01:57:15;;;;;;;44.40;23.63;;;;;;;-149.78;100.00;50385.38;5064489;28;20036;-74
2021/10/18 01:59:41;;;;;;;49.17;24.85;;;;;;;-149.78;100.00;50397.13;5069748;28;20047;-73
2021/10/18 02:02:07;;;;;;;50.53;25.67;;;;;;;-149.78;100.00;50389.31;5057756;28;20171;-70
2021/10/18 02:04:32;;;;;;;52.78;26.40;;;;;;;-149.78;100.00;50377.56;5068592;28;20097;-70
2021/10/18 02:06:58;;;;;;;46.17;25.30;;;;;;;-149.78;100.00;50381.47;5055351;28;20064;-70
2021/10/18 02:09:24;;;;;;;48.65;25.55;;;;;;;-149.78;100.00;50381.47;5072976;28;20035;-70
2021/10/18 02:11:50;;;;;;;51.80;26.00;;;;;;;-149.78;100.00;50354.09;5066733;28;20037;-70
2021/10/18 02:14:16;;;;;;;56.53;27.77;;;;;;;-149.78;100.00;50369.75;5065552;28;20364;-70
2021/10/18 02:16:42;;;;;;;54.38;27.02;;;;;;;-149.78;100.00;50381.47;5065719;28;20044;-70
2021/10/18 02:19:07;;;;;;;61.63;28.08;;;;;;;-149.78;100.00;50354.09;5056224;28;20029;-70
2021/10/18 02:21:34;;;;;;;54.03;26.92;;;;;;;-149.78;100.00;50389.31;5057399;28;20045;-70
2021/10/18 02:24:00;;;;;;;51.85;27.15;;;;;;;-149.78;100.00;50404.94;5062280;28;20033;-70
2021/10/18 02:26:26;;;;;;;50.08;27.55;;;;;;;-149.78;100.00;50393.22;5058465;28;20032;-70
2021/10/18 02:28:52;;;;;;;53.40;27.52;;;;;;;-149.78;100.00;50391.25;5063433;28;20043;-70
2021/10/18 02:31:17;;;;;;;59.53;28.73;;;;;;;-149.78;100.00;50383.44;5060816;28;20118;-71
2021/10/18 02:33:43;;;;;;;54.13;27.90;;;;;;;-149.78;100.00;50408.84;5064609;28;20032;-70
2021/10/18 02:36:10;;;;;;;55.50;28.70;;;;;;;-149.78;100.00;50408.84;5050473;28;20068;-70
2021/10/18 02:38:35;;;;;;;57.97;27.92;;;;;;;-149.78;100.00;50404.94;5059460;28;20056;-70
2021/10/18 02:41:01;;;;;;;55.20;28.98;;;;;;;-149.78;100.00;50420.59;5057905;28;20029;-71
2021/10/18 02:43:28;;;;;;;56.88;28.15;;;;;;;-149.78;100.00;50389.31;5054573;28;20079;-70
2021/10/18 02:45:54;;;;;;;54.10;29.02;;;;;;;-149.78;100.00;50401.03;5055088;28;20120;-70
2021/10/18 02:48:19;;;;;;;56.38;28.52;;;;;;;-149.78;100.00;50397.13;5053504;28;20033;-69
2021/10/18 02:50:45;;;;;;;56.58;29.20;;;;;;;-149.78;100.00;50397.13;5067899;28;20035;-70
2021/10/18 02:53:10;;;;;;;57.72;28.27;;;;;;;-149.78;100.00;50420.59;5057395;28;20039;-70
2021/10/18 02:55:37;;;;;;;59.38;28.38;;;;;;;-149.78;100.00;50397.13;5071599;28;20035;-70
2021/10/18 02:58:02;;;;;;;53.58;27.48;;;;;;;-149.78;100.00;50399.09;5055703;28;20408;-69
2021/10/18 03:00:28;;;;;;;53.88;27.50;;;;;;;-149.78;100.00;50397.13;5061054;28;20048;-70
2021/10/18 03:02:54;;;;;;;54.72;28.15;;;;;;;-149.78;100.00;50404.94;5070195;28;20052;-69
2021/10/18 03:05:19;;;;;;;55.67;27.77;;;;;;;-149.78;100.00;50381.47;5065449;28;20024;-69
2021/10/18 03:07:50;;;;;;;55.78;28.75;;;;;;;-149.78;100.00;50373.66;5062766;28;20043;-70
2021/10/18 03:10:16;;;;;;;54.67;27.58;;;;;;;-149.78;100.00;50424.50;5072139;28;20037;-70
2021/10/18 03:12:42;;;;;;;58.15;29.88;;;;;;;-149.78;100.00;50401.03;5059600;28;20046;-69
2021/10/18 03:15:08;;;;;;;57.08;27.83;;;;;;;-149.78;100.00;50424.50;5052841;28;20037;-70
2021/10/18 03:17:34;;;;;;;55.67;27.27;;;;;;;-149.78;100.00;50399.09;5057384;28;20389;-69
2021/10/18 03:19:59;;;;;;;58.88;27.08;;;;;;;-149.78;100.00;50397.13;5056212;28;20458;-70
2021/10/18 03:22:25;;;;;;;52.83;26.48;;;;;;;-149.78;100.00;50412.78;5053738;28;20120;-69
2021/10/18 03:24:51;;;;;;;56.80;28.52;;;;;;;-149.78;100.00;50393.22;5051573;28;20503;-70
2021/10/18 03:27:17;;;;;;;54.25;27.05;;;;;;;-149.78;100.00;50377.56;5066417;28;20124;-70
2021/10/18 03:29:42;;;;;;;60.50;28.63;;;;;;;-149.78;100.00;50397.13;5070795;28;20036;-69
2021/10/18 03:32:08;;;;;;;56.75;28.15;;;;;;;-149.78;100.00;50408.84;5066696;28;20059;-70
2021/10/18 03:34:34;;;;;;;63.00;29.13;;;;;;;-149.78;100.00;50393.22;5068593;28;20475;-70
2021/10/18 03:36:59;;;;;;;58.67;28.70;;;;;;;-149.78;100.00;50408.84;5056188;28;20024;-70
2021/10/18 03:39:25;;;;;;;56.72;27.13;;;;;;;-149.78;100.00;50369.75;5035043;28;20041;-69
2021/10/18 03:41:50;;;;;;;58.33;27.52;;;;;;;-149.78;100.00;50385.38;5057186;28;20040;-69
2021/10/18 03:44:16;;;;;;;55.42;27.55;;;;;;;-149.78;100.00;50354.09;5059127;28;20035;-69
2021/10/18 03:46:42;;;;;;;58.50;27.13;;;;;;;-149.78;100.00;50432.31;5057061;28;20028;-70
2021/10/18 03:49:07;;;;;;;48.90;25.10;;;;;;;-149.78;100.00;50408.84;5058924;28;20496;-69
2021/10/18 03:51:33;;;;;;;53.50;26.23;;;;;;;-149.78;100.00;50424.50;5063844;28;20381;-70
2021/10/18 03:53:59;;;;;;;59.30;26.10;;;;;;;-149.78;100.00;50365.84;5052822;28;20036;-70
2021/10/18 03:56:24;;;;;;;56.63;27.05;;;;;;;-149.78;100.00;50371.69;5055645;28;20039;-70
2021/10/18 03:58:50;;;;;;;56.53;26.73;;;;;;;-149.78;100.00;50416.69;5059172;28;20029;-70
2021/10/18 04:01:16;;;;;;;50.72;26.02;;;;;;;-149.78;100.00;50420.59;5065004;28;20040;-70
2021/10/18 04:03:41;;;;;;;54.72;26.00;;;;;;;-149.78;100.00;50397.13;5052771;28;20033;-70
2021/10/18 04:06:07;;;;;;;56.22;26.60;;;;;;;-149.78;100.00;50397.13;5064489;28;20115;-69
2021/10/18 04:08:33;;;;;;;53.90;26.65;;;;;;;-149.78;100.00;50432.31;5059567;28;20369;-69
2021/10/18 04:11:01;;;;;;;58.70;28.00;;;;;;;-149.78;100.00;50397.13;5066493;28;20037;-69
2021/10/18 04:13:26;;;;;;;54.92;26.45;;;;;;;-149.78;100.00;50447.97;5056017;28;20021;-70
2021/10/18 04:15:52;;;;;;;54.65;26.60;;;;;;;-149.78;100.00;50412.78;5063233;28;20487;-70
2021/10/18 04:18:18;;;;;;;60.17;27.15;;;;;;;-149.78;100.00;50422.56;5056167;28;20032;-70
2021/10/18 04:20:44;;;;;;;55.65;26.98;;;;;;;-149.78;100.00;50424.50;5058825;28;20047;-69
2021/10/18 04:23:10;;;;;;;54.85;26.67;;;;;;;-149.78;100.00;50426.47;5057819;28;20379;-69
2021/10/18 04:25:36;;;;;;;52.50;25.75;;;;;;;-149.78;100.00;50401.03;5059067;28;20029;-70
2021/10/18 04:28:01;;;;;;;57.63;26.88;;;;;;;-149.78;100.00;50385.38;5051223;28;20041;-69
2021/10/18 04:30:28;;;;;;;49.15;24.67;;;;;;;-149.78;100.00;50408.84;5059742;28;20373;-70
2021/10/18 04:32:55;;;;;;;54.20;26.08;;;;;;;-149.78;100.00;50440.16;5064075;28;20039;-70
2021/10/18 04:35:21;;;;;;;57.42;27.67;;;;;;;-149.78;100.00;50408.84;5057095;28;20053;-70
2021/10/18 04:37:47;;;;;;;58.22;27.52;;;;;;;-149.78;100.00;50416.69;5067962;28;20028;-69
2021/10/18 04:40:13;;;;;;;69.28;29.02;;;;;;;-149.78;100.00;50401.03;5060842;28;20028;-70
2021/10/18 04:42:39;;;;;;;56.78;26.58;;;;;;;-149.78;100.00;50416.69;5055397;28;20041;-70
2021/10/18 04:45:06;;;;;;;59.67;27.50;;;;;;;-149.78;100.00;50416.69;5060110;28;20443;-70
2021/10/18 04:47:31;;;;;;;60.05;28.27;;;;;;;-149.78;100.00;50428.41;5062304;28;20060;-69
2021/10/18 04:49:57;;;;;;;62.33;27.25;;;;;;;-149.78;100.00;50424.50;5056366;28;20049;-70
2021/10/18 04:52:22;;;;;;;60.85;28.05;;;;;;;-149.78;100.00;50436.25;5065391;28;20040;-70
2021/10/18 04:54:48;;;;;;;53.42;26.88;;;;;;;-149.78;100.00;50397.13;5057675;28;20051;-70
2021/10/18 04:57:13;;;;;;;58.35;26.65;;;;;;;-149.78;100.00;50408.84;5062107;28;20028;-70
2021/10/18 04:59:39;;;;;;;58.28;26.92;;;;;;;-149.78;100.00;50408.84;5057557;28;20029;-69
2021/10/18 05:02:05;;;;;;;56.40;27.13;;;;;;;-149.78;100.00;50428.41;5057480;28;20439;-70
2021/10/18 05:04:32;;;;;;;55.40;26.30;;;;;;;-149.78;100.00;50440.16;5060803;28;20041;-69
2021/10/18 05:06:58;;;;;;;57.08;26.83;;;;;;;-149.78;100.00;50436.25;5050512;28;20044;-69
2021/10/18 05:09:23;;;;;;;58.03;25.42;;;;;;;-149.78;100.00;50447.97;5066588;28;20032;-70
2021/10/18 05:11:49;;;;;;;54.10;26.35;;;;;;;-149.78;100.00;50387.34;5055893;28;20040;-69
2021/10/18 05:14:15;;;;;;;53.53;23.88;;;;;;;-149.78;100.00;50408.84;5055696;28;20041;-69
2021/10/18 05:16:40;;;;;;;54.55;25.15;;;;;;;-149.78;100.00;50412.78;5060839;28;20083;-70
2021/10/18 05:19:06;;;;;;;48.22;23.75;;;;;;;-149.78;100.00;50428.41;5060936;28;20473;-69
2021/10/18 05:21:32;;;;;;;56.78;24.15;;;;;;;-149.78;100.00;50401.03;5058339;28;20057;-69
2021/10/18 05:23:57;;;;;;;53.33;23.83;;;;;;;-149.78;100.00;50416.69;5058388;28;20083;-69
2021/10/18 05:26:23;;;;;;;52.47;22.95;;;;;;;-149.78;100.00;50463.63;5063111;28;20032;-70
2021/10/18 05:28:50;;;;;;;48.67;22.27;;;;;;;-149.78;100.00;50434.28;5072229;28;20040;-70
2021/10/18 05:31:15;;;;;;;52.92;23.77;;;;;;;-149.78;100.00;50479.28;5054842;28;20527;-70
2021/10/18 05:33:41;;;;;;;50.50;22.73;;;;;;;-149.78;100.00;50424.50;5065336;28;20493;-69
2021/10/18 05:36:06;;;;;;;49.75;21.88;;;;;;;-149.78;100.00;50406.91;5059629;28;20468;-70
2021/10/18 05:38:32;;;;;;;54.67;22.80;;;;;;;-149.78;100.00;50428.41;5060576;28;20377;-70
2021/10/18 05:40:58;;;;;;;50.67;23.58;;;;;;;-149.78;100.00;50420.59;5070803;28;20029;-70
2021/10/18 05:43:23;;;;;;;49.65;23.00;;;;;;;-149.78;100.00;50404.94;5064877;28;20388;-69
2021/10/18 05:45:49;;;;;;;49.15;21.40;;;;;;;-149.78;100.00;50432.31;5053301;28;20040;-70
2021/10/18 05:48:15;;;;;;;50.75;22.45;;;;;;;-149.78;100.00;50424.50;5062260;28;20037;-69
2021/10/18 05:50:44;;;;;;;54.97;22.08;;;;;;;-149.78;100.00;50408.84;5058346;28;20036;-69
2021/10/18 05:53:11;;;;;;;48.65;23.02;;;;;;;-149.78;100.00;50412.78;5057118;28;20035;-70
2021/10/18 05:55:38;;;;;;;48.00;21.73;;;;;;;-149.78;100.00;50385.38;5061433;28;20471;-70
2021/10/18 05:58:06;;;;;;;49.97;22.52;;;;;;;-149.78;100.00;50428.41;5062409;28;20040;-70
2021/10/18 06:00:35;;;;;;;46.75;21.55;;;;;;;-149.78;100.00;50389.31;5067452;28;20047;-70
2021/10/18 06:03:00;;;;;;;48.83;21.25;;;;;;;-149.78;100.00;50440.16;5074206;28;20028;-69
2021/10/18 06:05:27;;;;;;;47.03;21.42;;;;;;;-149.78;100.00;50432.31;5055355;28;20025;-70
2021/10/18 06:08:03;;;;;;;49.03;21.30;;;;;;;-149.78;100.00;50387.34;5066495;28;20039;-69
2021/10/18 06:10:28;;;;;;;48.55;21.20;;;;;;;-149.78;100.00;50408.84;5059235;28;20033;-69
2021/10/18 06:12:54;;;;;;;44.00;20.85;;;;;;;-149.78;100.00;50432.31;5060631;28;20452;-70
2021/10/18 06:15:20;;;;;;;44.33;19.60;;;;;;;-149.78;100.00;50416.69;5058151;28;20044;-69
2021/10/18 06:17:46;;;;;;;45.05;20.90;;;;;;;-149.78;100.00;50440.16;5057483;28;20025;-70
2021/10/18 06:20:16;;;;;;;42.22;21.00;;;;;;;-149.78;100.00;50424.50;5060840;28;20083;-70
2021/10/18 06:22:42;;;;;;;47.65;21.88;;;;;;;-149.78;100.00;50432.31;5059763;28;20094;-71
2021/10/18 06:25:08;;;;;;;44.13;20.75;;;;;;;-149.78;100.00;50404.94;5060175;28;20028;-73
2021/10/18 06:27:34;;;;;;;52.78;21.83;;;;;;;-149.78;100.00;50412.78;5054839;28;20185;-74
2021/10/18 06:30:00;;;;;;;47.67;22.48;;;;;;;-149.78;100.00;50436.25;5062267;28;20071;-74
2021/10/18 06:32:29;;;;;;;50.15;21.70;;;;;;;-149.78;100.00;50404.94;5065314;28;20457;-73
2021/10/18 06:34:58;;;;;;;45.50;20.30;;;;;;;-149.78;100.00;50432.31;5064761;28;20054;-73
2021/10/18 06:37:24;;;;;;;47.08;21.85;;;;;;;-149.78;100.00;50438.19;5065911;28;20138;-74
2021/10/18 06:39:49;;;;;;;48.15;20.52;;;;;;;-149.78;100.00;50412.78;5063606;28;20515;-72
2021/10/18 06:42:15;;;;;;;49.08;22.55;;;;;;;-149.78;100.00;50447.97;5061613;28;20103;-70
2021/10/18 06:44:42;;;;;;;45.53;21.30;;;;;;;-149.78;100.00;50447.97;5067309;28;20036;-73
2021/10/18 06:47:08;;;;;;;46.80;21.95;;;;;;;-149.78;100.00;50404.94;5038698;28;20024;-74
2021/10/18 06:49:36;;;;;;;51.65;22.23;;;;;;;-149.78;100.00;50397.13;5053952;28;20102;-73
2021/10/18 06:52:02;;;;;;;50.20;22.05;;;;;;;-149.78;100.00;50408.84;5059440;28;20087;-74
2021/10/18 06:54:36;;;;;;;50.78;22.67;;;;;;;-149.78;100.00;50432.31;5068210;28;20059;-74
2021/10/18 06:57:02;;;;;;;51.78;22.73;;;;;;;-149.78;100.00;50483.19;5067600;28;20029;-75
2021/10/18 06:59:28;;;;;;;50.08;22.00;;;;;;;-149.78;100.00;50430.38;5068593;28;20037;-74
2021/10/18 07:01:53;;;;;;;51.85;21.73;;;;;;;-149.78;100.00;50412.78;5061529;28;20036;-72
2021/10/18 07:04:21;;;;;;;50.05;22.95;;;;;;;-149.78;100.00;50420.59;5057282;28;20121;-72
2021/10/18 07:06:47;;;;;;;49.00;21.70;;;;;;;-149.78;100.00;50426.47;5064938;28;20039;-72
2021/10/18 07:09:13;;;;;;;50.63;22.55;;;;;;;-149.78;100.00;50397.13;5067174;28;20036;-72
2021/10/18 07:11:38;;;;;;;46.17;21.67;;;;;;;-149.78;100.00;50399.09;5061053;28;20067;-72
2021/10/18 07:14:04;;;;;;;45.75;21.10;;;;;;;-149.78;100.00;50381.47;5070102;28;20043;-72
2021/10/18 07:16:30;;;;;;;45.50;20.33;;;;;;;-149.78;100.00;50399.09;5064727;28;20048;-73
2021/10/18 07:18:55;;;;;;;48.30;20.95;;;;;;;-149.78;100.00;50399.09;5056375;28;20036;-72
2021/10/18 07:21:21;;;;;;;43.33;19.75;;;;;;;-149.78;100.00;50447.97;5061402;28;20040;-73
2021/10/18 07:23:51;;;;;;;45.97;21.13;;;;;;;-149.78;100.00;50420.59;5064785;28;20033;-72
2021/10/18 07:26:18;;;;;;;47.05;21.38;;;;;;;-149.78;100.00;50404.94;5058100;28;20024;-72
2021/10/18 07:28:44;;;;;;;42.75;20.65;;;;;;;-149.78;100.00;50424.50;5063880;28;20529;-72
2021/10/18 07:31:10;;;;;;;46.38;21.58;;;;;;;-149.78;100.00;50424.50;5057279;28;20059;-72
2021/10/18 07:33:36;;;;;;;47.45;21.40;;;;;;;-149.78;100.00;50401.03;5055253;28;20064;-72
2021/10/18 07:36:08;;;;;;;50.00;21.77;;;;;;;-149.78;100.00;50401.03;5065173;28;20041;-72
2021/10/18 07:38:36;;;;;;;44.95;20.98;;;;;;;-149.78;100.00;50428.41;5065322;28;20063;-72
2021/10/18 07:41:02;;;;;;;47.65;20.88;;;;;;;-149.78;100.00;50420.59;5064180;28;20040;-72
2021/10/18 07:43:28;;;;;;;46.22;20.90;;;;;;;-149.78;100.00;50412.78;5054416;28;20044;-72
2021/10/18 07:45:54;;;;;;;49.17;21.67;;;;;;;-149.78;100.00;50399.09;5067597;28;20361;-72
2021/10/18 07:48:20;;;;;;;52.78;22.67;;;;;;;-149.78;100.00;50412.78;5069082;28;20035;-72
2021/10/18 07:50:46;;;;;;;48.03;20.48;;;;;;;-149.78;100.00;50381.47;5063213;28;20032;-72
2021/10/18 07:53:12;;;;;;;46.47;20.55;;;;;;;-149.78;100.00;50381.47;5062289;28;20025;-72
2021/10/18 07:55:38;;;;;;;45.38;21.35;;;;;;;-149.78;100.00;50422.56;5054081;28;20081;-72
2021/10/18 07:58:04;;;;;;;50.20;20.48;;;;;;;-149.78;100.00;50424.50;5055950;28;20045;-72
2021/10/18 08:00:30;;;;;;;48.30;20.02;;;;;;;-149.78;100.00;50375.63;5078281;28;20067;-72
2021/10/18 08:02:56;;;;;;;52.25;21.63;;;;;;;-149.78;100.00;50406.91;5079482;28;20039;-73
2021/10/18 08:05:23;;;;;;;49.85;20.10;;;;;;;-149.78;100.00;50395.16;5080873;28;20028;-72
2021/10/18 08:07:50;;;;;;;51.33;20.05;;;;;;;-149.78;100.00;50412.78;5066788;28;20035;-72
2021/10/18 08:10:26;;;;;;;53.88;21.27;;;;;;;-149.78;100.00;50383.44;5074144;28;20483;-75
2021/10/18 08:12:54;;;;;;;51.70;21.70;;;;;;;-149.78;100.00;50383.44;5071752;28;20039;-75
2021/10/18 08:15:20;;;;;;;48.38;20.67;;;;;;;-149.78;100.00;50379.53;5078822;28;20036;-75
2021/10/18 08:17:46;;;;;;;55.63;21.27;;;;;;;-149.78;100.00;50389.31;5075102;28;20039;-75
2021/10/18 08:20:12;;;;;;;51.35;20.80;;;;;;;-149.78;100.00;50408.84;5065957;28;20401;-75
2021/10/18 08:22:38;;;;;;;52.33;21.98;;;;;;;-149.78;100.00;50395.16;5056733;28;20047;-74
2021/10/18 08:25:08;;;;;;;48.03;20.27;;;;;;;-149.78;100.00;50455.81;5066108;28;20067;-75
2021/10/18 08:27:34;;;;;;;50.33;20.77;;;;;;;-149.78;100.00;50397.13;5059562;28;20036;-75
2021/10/18 08:30:00;;;;;;;49.15;21.50;;;;;;;-149.78;100.00;50412.78;5063648;28;20381;-74
2021/10/18 08:32:26;;;;;;;51.75;20.80;;;;;;;-149.78;100.00;50401.03;5070904;28;20025;-75
2021/10/18 08:34:52;;;;;;;51.33;21.35;;;;;;;-149.78;100.00;50373.66;5064926;28;20658;-75
2021/10/18 08:37:18;;;;;;;46.90;20.35;;;;;;;-149.78;100.00;50397.13;5060817;28;20029;-75
2021/10/18 08:42:40;;;;;;;47.95;20.80;;;;;;;-149.78;100.00;50385.38;5062612;28;20161;-75
2021/10/18 08:45:06;;;;;;;51.00;21.75;;;;;;;-149.78;100.00;50391.25;5058830;28;20032;-74
2021/10/18 08:47:32;;;;;;;47.67;21.63;;;;;;;-149.78;100.00;50420.59;5067227;28;20097;-74
2021/10/18 08:49:58;;;;;;;51.67;20.95;;;;;;;-149.78;100.00;50381.47;5060850;28;20120;-74
2021/10/18 08:52:24;;;;;;;45.13;20.88;;;;;;;-149.78;100.00;50381.47;5060328;28;20388;-74
2021/10/18 08:54:49;;;;;;;51.53;22.02;;;;;;;-149.78;100.00;50377.56;5055055;28;20116;-74
2021/10/18 08:57:15;;;;;;;44.33;20.75;;;;;;;-149.78;100.00;50408.84;5062766;28;20037;-74
2021/10/18 08:59:41;;;;;;;43.83;20.67;;;;;;;-149.78;100.00;50393.22;5067715;28;20536;-75
2021/10/18 09:02:07;;;;;;;44.60;19.45;;;;;;;-149.78;100.00;50424.50;5062615;28;20036;-74
2021/10/18 09:04:40;;;;;;;40.80;18.63;;;;;;;-149.78;100.00;50385.38;5070004;28;20036;-74
2021/10/18 09:07:17;;;;;;;42.75;20.08;;;;;;;-149.78;100.00;50385.38;5059952;28;20036;-74
2021/10/18 09:09:47;;;;;;;44.53;19.88;;;;;;;-149.78;100.00;50424.50;5066080;28;20476;-74
2021/10/18 09:12:38;;;;;;;45.92;20.70;;;;;;;-149.78;100.00;50408.84;5058483;28;20074;-74
2021/10/18 09:15:21;;;;;;;40.45;19.38;;;;;;;-149.78;100.00;50385.38;5068269;28;20396;-74
2021/10/18 09:17:58;;;;;;;43.92;21.17;;;;;;;-149.78;100.00;50385.38;5069821;28;20557;-74
2021/10/18 09:20:36;;;;;;;45.97;21.75;;;;;;;-149.78;100.00;50389.31;5061934;28;20107;-75
2021/10/18 09:23:28;;;;;;;42.97;21.13;;;;;;;-149.78;100.00;50358.00;5067202;28;20617;-74
2021/10/18 09:26:13;;;;;;;48.45;20.98;;;;;;;-149.78;100.00;50408.84;5066651;28;20055;-75
2021/10/18 09:28:40;;;;;;;47.88;21.33;;;;;;;-149.78;100.00;50397.13;5068264;28;20132;-74
2021/10/18 09:31:15;;;;;;;41.30;20.48;;;;;;;-149.78;100.00;50389.31;5057983;28;20074;-74
2021/10/18 09:33:46;;;;;;;44.55;21.63;;;;;;;-149.78;100.00;50408.84;5061905;28;20116;-75
2021/10/18 09:36:16;;;;;;;41.63;21.00;;;;;;;-149.78;100.00;50430.38;5055714;28;20047;-74
2021/10/18 09:38:41;;;;;;;41.10;19.15;;;;;;;-149.78;100.00;50404.94;5068049;28;20086;-74
2021/10/18 09:41:08;;;;;;;38.40;18.92;;;;;;;-149.78;100.00;50393.22;5059250;28;20040;-75
2021/10/18 09:43:46;;;;;;;39.65;20.13;;;;;;;-149.78;100.00;50373.66;5058932;28;20484;-74
2021/10/18 10:53:33;;;;;;;36.42;17.85;;;;;;;-149.78;100.00;50397.13;5062835;28;20439;-74
2021/10/18 10:56:15;;;;;;;34.70;18.13;;;;;;;-149.78;100.00;50350.19;5073187;28;20439;-74
2021/10/18 10:58:54;;;;;;;39.30;18.75;;;;;;;-149.78;100.00;50334.53;5063240;28;20104;-74
2021/10/18 11:01:43;;;;;;;33.28;17.70;;;;;;;-149.78;100.00;50361.91;5077739;28;20364;-74
2021/10/18 11:04:30;;;;;;;45.15;19.42;;;;;;;-149.78;100.00;50389.31;5077946;28;20039;-74
2021/10/18 11:07:04;;;;;;;37.20;18.83;;;;;;;-149.78;100.00;50393.22;5071184;28;20036;-74
2021/10/18 11:09:51;;;;;;;35.22;17.42;;;;;;;-149.78;100.00;50406.91;5062119;28;20025;-74
2021/10/18 11:12:17;;;;;;;35.28;18.42;;;;;;;-149.78;100.00;50350.19;5073770;28;20484;-74
2021/10/18 11:14:56;;;;;;;35.00;18.15;;;;;;;-149.78;100.00;50365.84;5071673;28;20039;-74
2021/10/18 11:17:28;;;;;;;42.13;19.27;;;;;;;-149.78;100.00;50350.19;5068598;28;20039;-74
2021/10/18 11:20:00;;;;;;;40.42;17.98;;;;;;;-149.78;100.00;50373.66;5062598;28;20036;-74
2021/10/18 11:22:47;;;;;;;33.75;17.88;;;;;;;-149.78;100.00;50354.09;5062823;28;20417;-73
2021/10/18 11:25:15;;;;;;;32.72;17.83;;;;;;;-149.78;100.00;50369.75;5062665;28;20465;-74
2021/10/18 11:27:43;;;;;;;37.47;18.95;;;;;;;-149.78;100.00;50369.75;5067954;28;20025;-74
2021/10/18 11:30:15;;;;;;;35.58;17.55;;;;;;;-149.78;100.00;50377.56;5067921;28;20035;-73
2021/10/18 11:32:53;;;;;;;35.45;18.92;;;;;;;-149.78;100.00;50342.38;5065175;28;20041;-74
2021/10/18 11:35:20;;;;;;;40.30;18.83;;;;;;;-149.78;100.00;50389.31;5063009;28;20170;-73
2021/10/18 11:37:52;;;;;;;34.72;17.58;;;;;;;-149.78;100.00;50408.84;5056793;28;20040;-74
2021/10/18 11:40:20;;;;;;;;;;;;;;;-149.78;100.00;50424.50;5061883;28;20044;-72
2021/10/18 11:42:57;;;;;;;36.65;19.17;;;;;;;-149.78;100.00;50369.75;5071804;28;19912;-73
2021/10/18 11:45:27;;;;;;;37.95;18.92;;;;;;;-149.78;100.00;50354.09;5075629;28;20495;-74
2021/10/18 11:48:02;;;;;;;43.17;19.98;;;;;;;-149.78;100.00;50365.84;5064947;28;20119;-73
2021/10/18 11:50:28;;;;;;;36.92;19.20;;;;;;;-149.78;100.00;50385.38;5062522;28;20038;-74
2021/10/18 11:53:00;;;;;;;39.42;19.52;;;;;;;-149.78;100.00;50373.66;5035284;28;20430;-74
2021/10/18 11:55:37;;;;;;;39.10;18.98;;;;;;;-149.78;100.00;50361.91;5069501;28;20102;-73
2021/10/18 11:58:05;;;;;;;39.40;19.23;;;;;;;-149.78;100.00;50344.31;5052744;28;20056;-74
2021/10/18 12:00:40;;;;;;;41.58;19.80;;;;;;;-149.78;100.00;50346.28;5061125;28;20021;-74
2021/10/18 12:03:17;;;;;;;42.95;19.67;;;;;;;-149.78;100.00;50346.28;5065748;28;20047;-74
2021/10/18 12:05:49;;;;;;;35.67;18.73;;;;;;;-149.78;100.00;50377.56;5096944;28;20153;-73